sensor_id;sensor_type;location;lat;lon;timestamp;P1;durP1;ratioP1;P2;durP2;ratioP2
40609;SDS011;26316;55.976;37.140;2023-03-09T00:02:02;1.42;;;1.30;;
40609;SDS011;26316;55.976;37.140;2023-03-09T00:04:30;2.08;;;1.65;;
40609;SDS011;26316;55.976;37.140;2023-03-09T00:06:56;1.63;;;1.30;;
40609;SDS011;26316;55.976;37.140;2023-03-09T00:09:22;1.52;;;1.30;;
40609;SDS011;26316;55.976;37.140;2023-03-09T00:11:48;2.17;;;1.60;;
40609;SDS011;26316;55.976;37.140;2023-03-09T00:14:15;1.83;;;1.42;;
40609;SDS011;26316;55.976;37.140;2023-03-09T00:16:41;2.15;;;1.52;;
40609;SDS011;26316;55.976;37.140;2023-03-09T00:19:07;1.42;;;1.33;;
40609;SDS011;26316;55.976;37.140;2023-03-09T00:21:34;2.83;;;1.75;;
40609;SDS011;26316;55.976;37.140;2023-03-09T00:24:05;1.85;;;1.70;;
40609;SDS011;26316;55.976;37.140;2023-03-09T00:26:34;3.05;;;1.50;;
40609;SDS011;26316;55.976;37.140;2023-03-09T00:29:02;3.25;;;2.00;;
40609;SDS011;26316;55.976;37.140;2023-03-09T00:31:29;2.85;;;1.50;;
40609;SDS011;26316;55.976;37.140;2023-03-09T00:33:55;1.38;;;1.27;;
40609;SDS011;26316;55.976;37.140;2023-03-09T00:36:21;1.85;;;1.42;;
40609;SDS011;26316;55.976;37.140;2023-03-09T00:38:52;1.65;;;1.50;;
40609;SDS011;26316;55.976;37.140;2023-03-09T00:41:19;3.30;;;1.40;;
40609;SDS011;26316;55.976;37.140;2023-03-09T00:43:45;2.05;;;1.63;;
40609;SDS011;26316;55.976;37.140;2023-03-09T00:46:11;1.60;;;1.45;;
40609;SDS011;26316;55.976;37.140;2023-03-09T00:48:38;1.75;;;1.52;;
40609;SDS011;26316;55.976;37.140;2023-03-09T00:51:04;4.45;;;1.42;;
40609;SDS011;26316;55.976;37.140;2023-03-09T00:53:30;2.95;;;2.03;;
40609;SDS011;26316;55.976;37.140;2023-03-09T00:55:59;2.90;;;1.70;;
40609;SDS011;26316;55.976;37.140;2023-03-09T00:58:26;2.42;;;1.88;;
40609;SDS011;26316;55.976;37.140;2023-03-09T01:00:51;3.13;;;1.60;;
40609;SDS011;26316;55.976;37.140;2023-03-09T01:03:17;1.70;;;1.60;;
40609;SDS011;26316;55.976;37.140;2023-03-09T01:05:43;2.65;;;2.08;;
40609;SDS011;26316;55.976;37.140;2023-03-09T01:08:09;1.80;;;1.58;;
40609;SDS011;26316;55.976;37.140;2023-03-09T01:10:37;2.35;;;1.98;;
40609;SDS011;26316;55.976;37.140;2023-03-09T01:13:03;2.97;;;1.83;;
40609;SDS011;26316;55.976;37.140;2023-03-09T01:15:29;3.13;;;1.63;;
40609;SDS011;26316;55.976;37.140;2023-03-09T01:17:55;1.70;;;1.60;;
40609;SDS011;26316;55.976;37.140;2023-03-09T01:20:21;2.35;;;1.45;;
40609;SDS011;26316;55.976;37.140;2023-03-09T01:22:47;2.05;;;1.77;;
40609;SDS011;26316;55.976;37.140;2023-03-09T01:25:12;2.92;;;2.03;;
40609;SDS011;26316;55.976;37.140;2023-03-09T01:27:38;2.63;;;1.70;;
40609;SDS011;26316;55.976;37.140;2023-03-09T01:30:04;6.22;;;1.88;;
40609;SDS011;26316;55.976;37.140;2023-03-09T01:32:31;3.50;;;1.58;;
40609;SDS011;26316;55.976;37.140;2023-03-09T01:34:56;1.70;;;1.45;;
40609;SDS011;26316;55.976;37.140;2023-03-09T01:37:22;1.92;;;1.70;;
40609;SDS011;26316;55.976;37.140;2023-03-09T01:39:48;1.95;;;1.77;;
40609;SDS011;26316;55.976;37.140;2023-03-09T01:42:13;5.35;;;1.88;;
40609;SDS011;26316;55.976;37.140;2023-03-09T01:44:39;2.63;;;2.22;;
40609;SDS011;26316;55.976;37.140;2023-03-09T01:47:05;2.10;;;1.90;;
40609;SDS011;26316;55.976;37.140;2023-03-09T01:49:32;1.85;;;1.60;;
40609;SDS011;26316;55.976;37.140;2023-03-09T01:54:48;1.98;;;1.75;;
40609;SDS011;26316;55.976;37.140;2023-03-09T01:59:43;2.33;;;1.65;;
40609;SDS011;26316;55.976;37.140;2023-03-09T02:02:09;2.95;;;1.83;;
40609;SDS011;26316;55.976;37.140;2023-03-09T02:04:39;1.88;;;1.77;;
40609;SDS011;26316;55.976;37.140;2023-03-09T02:07:11;3.10;;;1.85;;
40609;SDS011;26316;55.976;37.140;2023-03-09T02:09:43;2.53;;;2.08;;
40609;SDS011;26316;55.976;37.140;2023-03-09T02:12:13;3.33;;;1.75;;
40609;SDS011;26316;55.976;37.140;2023-03-09T02:17:09;3.53;;;1.60;;
40609;SDS011;26316;55.976;37.140;2023-03-09T02:19:38;1.60;;;1.50;;
40609;SDS011;26316;55.976;37.140;2023-03-09T02:22:09;3.13;;;1.85;;
40609;SDS011;26316;55.976;37.140;2023-03-09T02:24:38;2.15;;;1.70;;
40609;SDS011;26316;55.976;37.140;2023-03-09T02:27:28;2.13;;;1.58;;
40609;SDS011;26316;55.976;37.140;2023-03-09T02:29:54;2.00;;;1.80;;
40609;SDS011;26316;55.976;37.140;2023-03-09T02:32:21;3.35;;;1.88;;
40609;SDS011;26316;55.976;37.140;2023-03-09T02:34:46;1.85;;;1.75;;
40609;SDS011;26316;55.976;37.140;2023-03-09T02:37:32;3.42;;;1.55;;
40609;SDS011;26316;55.976;37.140;2023-03-09T02:42:53;1.83;;;1.73;;
40609;SDS011;26316;55.976;37.140;2023-03-09T02:45:21;6.30;;;1.60;;
40609;SDS011;26316;55.976;37.140;2023-03-09T02:47:47;2.85;;;1.70;;
40609;SDS011;26316;55.976;37.140;2023-03-09T02:50:15;2.10;;;1.40;;
40609;SDS011;26316;55.976;37.140;2023-03-09T02:52:41;3.13;;;1.98;;
40609;SDS011;26316;55.976;37.140;2023-03-09T02:55:07;2.75;;;1.92;;
40609;SDS011;26316;55.976;37.140;2023-03-09T02:57:34;1.60;;;1.50;;
40609;SDS011;26316;55.976;37.140;2023-03-09T03:00:01;2.08;;;1.70;;
40609;SDS011;26316;55.976;37.140;2023-03-09T03:02:29;3.85;;;1.70;;
40609;SDS011;26316;55.976;37.140;2023-03-09T03:04:56;2.53;;;1.52;;
40609;SDS011;26316;55.976;37.140;2023-03-09T03:07:23;1.80;;;1.70;;
40609;SDS011;26316;55.976;37.140;2023-03-09T03:09:49;1.98;;;1.77;;
40609;SDS011;26316;55.976;37.140;2023-03-09T03:12:14;1.70;;;1.60;;
40609;SDS011;26316;55.976;37.140;2023-03-09T03:14:40;3.33;;;2.10;;
40609;SDS011;26316;55.976;37.140;2023-03-09T03:17:05;3.13;;;1.90;;
40609;SDS011;26316;55.976;37.140;2023-03-09T03:19:31;2.20;;;1.55;;
40609;SDS011;26316;55.976;37.140;2023-03-09T03:21:58;3.20;;;1.80;;
40609;SDS011;26316;55.976;37.140;2023-03-09T03:24:24;2.25;;;1.50;;
40609;SDS011;26316;55.976;37.140;2023-03-09T03:26:51;2.17;;;1.95;;
40609;SDS011;26316;55.976;37.140;2023-03-09T03:29:20;6.23;;;1.87;;
40609;SDS011;26316;55.976;37.140;2023-03-09T03:31:46;4.32;;;2.05;;
40609;SDS011;26316;55.976;37.140;2023-03-09T03:34:12;2.92;;;1.65;;
40609;SDS011;26316;55.976;37.140;2023-03-09T03:36:41;2.60;;;1.80;;
40609;SDS011;26316;55.976;37.140;2023-03-09T03:39:07;1.77;;;1.55;;
40609;SDS011;26316;55.976;37.140;2023-03-09T03:41:34;1.98;;;1.70;;
40609;SDS011;26316;55.976;37.140;2023-03-09T03:44:05;2.97;;;1.73;;
40609;SDS011;26316;55.976;37.140;2023-03-09T03:46:30;2.85;;;1.90;;
40609;SDS011;26316;55.976;37.140;2023-03-09T03:48:57;2.45;;;1.70;;
40609;SDS011;26316;55.976;37.140;2023-03-09T03:51:24;2.08;;;1.67;;
40609;SDS011;26316;55.976;37.140;2023-03-09T03:53:52;4.82;;;2.08;;
40609;SDS011;26316;55.976;37.140;2023-03-09T03:56:19;3.63;;;1.77;;
40609;SDS011;26316;55.976;37.140;2023-03-09T03:58:47;2.17;;;1.88;;
40609;SDS011;26316;55.976;37.140;2023-03-09T04:01:14;1.50;;;1.40;;
40609;SDS011;26316;55.976;37.140;2023-03-09T04:03:41;1.70;;;1.60;;
40609;SDS011;26316;55.976;37.140;2023-03-09T04:06:06;3.88;;;2.10;;
40609;SDS011;26316;55.976;37.140;2023-03-09T04:08:33;2.08;;;1.60;;
40609;SDS011;26316;55.976;37.140;2023-03-09T04:11:03;4.03;;;1.90;;
40609;SDS011;26316;55.976;37.140;2023-03-09T04:13:30;2.65;;;1.95;;
40609;SDS011;26316;55.976;37.140;2023-03-09T04:15:56;3.13;;;2.08;;
40609;SDS011;26316;55.976;37.140;2023-03-09T04:18:22;3.00;;;2.10;;
40609;SDS011;26316;55.976;37.140;2023-03-09T04:20:49;3.17;;;1.88;;
40609;SDS011;26316;55.976;37.140;2023-03-09T04:23:14;4.05;;;2.15;;
40609;SDS011;26316;55.976;37.140;2023-03-09T04:25:52;3.05;;;1.77;;
40609;SDS011;26316;55.976;37.140;2023-03-09T04:28:25;4.35;;;2.40;;
40609;SDS011;26316;55.976;37.140;2023-03-09T04:30:52;3.65;;;2.60;;
40609;SDS011;26316;55.976;37.140;2023-03-09T04:33:18;2.85;;;2.20;;
40609;SDS011;26316;55.976;37.140;2023-03-09T04:35:44;2.67;;;2.00;;
40609;SDS011;26316;55.976;37.140;2023-03-09T04:38:17;2.60;;;2.40;;
40609;SDS011;26316;55.976;37.140;2023-03-09T04:40:43;3.78;;;2.10;;
40609;SDS011;26316;55.976;37.140;2023-03-09T04:43:10;2.03;;;1.58;;
40609;SDS011;26316;55.976;37.140;2023-03-09T04:45:36;3.25;;;1.98;;
40609;SDS011;26316;55.976;37.140;2023-03-09T04:48:02;2.58;;;1.80;;
40609;SDS011;26316;55.976;37.140;2023-03-09T04:50:29;2.17;;;1.85;;
40609;SDS011;26316;55.976;37.140;2023-03-09T04:55:25;2.42;;;1.95;;
40609;SDS011;26316;55.976;37.140;2023-03-09T04:57:54;3.07;;;1.77;;
40609;SDS011;26316;55.976;37.140;2023-03-09T05:00:20;4.03;;;2.20;;
40609;SDS011;26316;55.976;37.140;2023-03-09T05:02:47;2.15;;;1.77;;
40609;SDS011;26316;55.976;37.140;2023-03-09T05:05:13;2.83;;;1.85;;
40609;SDS011;26316;55.976;37.140;2023-03-09T05:07:42;2.17;;;1.40;;
40609;SDS011;26316;55.976;37.140;2023-03-09T05:10:08;4.45;;;1.50;;
40609;SDS011;26316;55.976;37.140;2023-03-09T05:12:38;3.85;;;1.85;;
40609;SDS011;26316;55.976;37.140;2023-03-09T05:15:08;2.70;;;1.48;;
40609;SDS011;26316;55.976;37.140;2023-03-09T05:17:35;3.33;;;1.42;;
40609;SDS011;26316;55.976;37.140;2023-03-09T05:20:02;5.80;;;1.65;;
40609;SDS011;26316;55.976;37.140;2023-03-09T05:22:34;3.53;;;1.65;;
40609;SDS011;26316;55.976;37.140;2023-03-09T05:25:00;1.55;;;1.30;;
40609;SDS011;26316;55.976;37.140;2023-03-09T05:27:26;2.80;;;1.50;;
40609;SDS011;26316;55.976;37.140;2023-03-09T05:29:52;2.40;;;1.60;;
40609;SDS011;26316;55.976;37.140;2023-03-09T05:32:17;1.92;;;1.50;;
40609;SDS011;26316;55.976;37.140;2023-03-09T05:34:45;3.70;;;2.00;;
40609;SDS011;26316;55.976;37.140;2023-03-09T05:37:11;3.90;;;1.40;;
40609;SDS011;26316;55.976;37.140;2023-03-09T05:39:37;1.65;;;1.50;;
40609;SDS011;26316;55.976;37.140;2023-03-09T05:42:03;2.95;;;1.63;;
40609;SDS011;26316;55.976;37.140;2023-03-09T05:44:33;1.98;;;1.40;;
40609;SDS011;26316;55.976;37.140;2023-03-09T05:46:58;3.63;;;1.27;;
40609;SDS011;26316;55.976;37.140;2023-03-09T05:49:24;3.53;;;1.60;;
40609;SDS011;26316;55.976;37.140;2023-03-09T05:51:55;2.50;;;1.60;;
40609;SDS011;26316;55.976;37.140;2023-03-09T05:54:22;2.92;;;1.60;;
40609;SDS011;26316;55.976;37.140;2023-03-09T05:56:49;4.03;;;1.60;;
40609;SDS011;26316;55.976;37.140;2023-03-09T05:59:19;3.28;;;1.83;;
40609;SDS011;26316;55.976;37.140;2023-03-09T06:01:44;1.75;;;1.30;;
40609;SDS011;26316;55.976;37.140;2023-03-09T06:04:18;2.00;;;1.58;;
40609;SDS011;26316;55.976;37.140;2023-03-09T06:06:49;2.55;;;1.55;;
40609;SDS011;26316;55.976;37.140;2023-03-09T06:09:15;1.75;;;1.50;;
40609;SDS011;26316;55.976;37.140;2023-03-09T06:11:41;4.22;;;1.73;;
40609;SDS011;26316;55.976;37.140;2023-03-09T06:14:08;3.67;;;1.65;;
40609;SDS011;26316;55.976;37.140;2023-03-09T06:16:38;3.00;;;1.60;;
40609;SDS011;26316;55.976;37.140;2023-03-09T06:19:04;4.20;;;1.85;;
40609;SDS011;26316;55.976;37.140;2023-03-09T06:21:30;1.73;;;1.58;;
40609;SDS011;26316;55.976;37.140;2023-03-09T06:23:56;3.17;;;1.80;;
40609;SDS011;26316;55.976;37.140;2023-03-09T06:26:25;3.30;;;1.83;;
40609;SDS011;26316;55.976;37.140;2023-03-09T06:28:55;2.17;;;1.58;;
40609;SDS011;26316;55.976;37.140;2023-03-09T06:31:21;2.97;;;1.40;;
40609;SDS011;26316;55.976;37.140;2023-03-09T06:33:49;3.83;;;1.95;;
40609;SDS011;26316;55.976;37.140;2023-03-09T06:36:16;3.47;;;1.60;;
40609;SDS011;26316;55.976;37.140;2023-03-09T06:38:44;2.47;;;1.88;;
40609;SDS011;26316;55.976;37.140;2023-03-09T06:41:11;2.28;;;1.58;;
40609;SDS011;26316;55.976;37.140;2023-03-09T06:43:39;2.55;;;1.80;;
40609;SDS011;26316;55.976;37.140;2023-03-09T06:46:09;2.80;;;1.85;;
40609;SDS011;26316;55.976;37.140;2023-03-09T06:48:35;2.07;;;1.50;;
40609;SDS011;26316;55.976;37.140;2023-03-09T06:51:01;2.25;;;1.60;;
40609;SDS011;26316;55.976;37.140;2023-03-09T06:53:27;4.50;;;1.75;;
40609;SDS011;26316;55.976;37.140;2023-03-09T06:55:59;4.03;;;1.50;;
40609;SDS011;26316;55.976;37.140;2023-03-09T06:58:27;3.08;;;1.60;;
40609;SDS011;26316;55.976;37.140;2023-03-09T07:00:53;2.40;;;1.85;;
40609;SDS011;26316;55.976;37.140;2023-03-09T07:03:19;2.90;;;2.25;;
40609;SDS011;26316;55.976;37.140;2023-03-09T07:05:45;2.08;;;1.33;;
40609;SDS011;26316;55.976;37.140;2023-03-09T07:08:10;2.72;;;1.45;;
40609;SDS011;26316;55.976;37.140;2023-03-09T07:10:36;3.00;;;1.60;;
40609;SDS011;26316;55.976;37.140;2023-03-09T07:13:02;2.22;;;1.90;;
40609;SDS011;26316;55.976;37.140;2023-03-09T07:15:27;1.38;;;1.25;;
40609;SDS011;26316;55.976;37.140;2023-03-09T07:17:53;3.65;;;1.40;;
40609;SDS011;26316;55.976;37.140;2023-03-09T07:20:18;1.55;;;1.30;;
40609;SDS011;26316;55.976;37.140;2023-03-09T07:22:44;2.03;;;1.30;;
40609;SDS011;26316;55.976;37.140;2023-03-09T07:25:10;2.95;;;1.20;;
40609;SDS011;26316;55.976;37.140;2023-03-09T07:27:36;2.65;;;1.27;;
40609;SDS011;26316;55.976;37.140;2023-03-09T07:30:02;2.30;;;1.50;;
40609;SDS011;26316;55.976;37.140;2023-03-09T07:32:29;2.22;;;1.30;;
40609;SDS011;26316;55.976;37.140;2023-03-09T07:34:55;2.55;;;1.60;;
40609;SDS011;26316;55.976;37.140;2023-03-09T07:37:21;2.25;;;1.50;;
40609;SDS011;26316;55.976;37.140;2023-03-09T07:39:47;2.15;;;1.40;;
40609;SDS011;26316;55.976;37.140;2023-03-09T07:42:12;2.08;;;1.35;;
40609;SDS011;26316;55.976;37.140;2023-03-09T07:44:50;2.13;;;1.35;;
40609;SDS011;26316;55.976;37.140;2023-03-09T07:47:16;1.42;;;1.30;;
40609;SDS011;26316;55.976;37.140;2023-03-09T07:49:42;2.28;;;1.27;;
40609;SDS011;26316;55.976;37.140;2023-03-09T07:52:08;1.33;;;1.00;;
40609;SDS011;26316;55.976;37.140;2023-03-09T07:54:33;2.30;;;1.45;;
40609;SDS011;26316;55.976;37.140;2023-03-09T07:57:00;2.58;;;1.15;;
40609;SDS011;26316;55.976;37.140;2023-03-09T07:59:26;1.85;;;1.15;;
40609;SDS011;26316;55.976;37.140;2023-03-09T08:01:52;1.10;;;1.00;;
40609;SDS011;26316;55.976;37.140;2023-03-09T08:04:17;7.53;;;1.20;;
40609;SDS011;26316;55.976;37.140;2023-03-09T08:06:43;2.70;;;1.13;;
40609;SDS011;26316;55.976;37.140;2023-03-09T08:09:13;2.38;;;1.20;;
40609;SDS011;26316;55.976;37.140;2023-03-09T08:11:40;1.65;;;1.05;;
40609;SDS011;26316;55.976;37.140;2023-03-09T08:14:09;3.25;;;1.20;;
40609;SDS011;26316;55.976;37.140;2023-03-09T08:16:36;1.30;;;0.93;;
40609;SDS011;26316;55.976;37.140;2023-03-09T08:19:01;4.60;;;1.27;;
40609;SDS011;26316;55.976;37.140;2023-03-09T08:21:27;3.30;;;1.58;;
40609;SDS011;26316;55.976;37.140;2023-03-09T08:23:53;1.90;;;1.35;;
40609;SDS011;26316;55.976;37.140;2023-03-09T08:26:18;3.75;;;1.33;;
40609;SDS011;26316;55.976;37.140;2023-03-09T08:28:44;3.10;;;1.30;;
40609;SDS011;26316;55.976;37.140;2023-03-09T08:31:11;14.90;;;2.38;;
40609;SDS011;26316;55.976;37.140;2023-03-09T08:33:38;2.17;;;1.35;;
40609;SDS011;26316;55.976;37.140;2023-03-09T08:36:10;2.53;;;1.42;;
40609;SDS011;26316;55.976;37.140;2023-03-09T08:38:37;1.67;;;1.20;;
40609;SDS011;26316;55.976;37.140;2023-03-09T08:41:03;3.28;;;1.30;;
40609;SDS011;26316;55.976;37.140;2023-03-09T08:43:28;3.03;;;1.33;;
40609;SDS011;26316;55.976;37.140;2023-03-09T08:45:54;4.57;;;1.20;;
40609;SDS011;26316;55.976;37.140;2023-03-09T08:48:19;1.50;;;1.13;;
40609;SDS011;26316;55.976;37.140;2023-03-09T08:50:45;2.00;;;1.25;;
40609;SDS011;26316;55.976;37.140;2023-03-09T08:53:10;1.77;;;0.98;;
40609;SDS011;26316;55.976;37.140;2023-03-09T08:55:36;2.38;;;1.40;;
40609;SDS011;26316;55.976;37.140;2023-03-09T08:58:02;2.65;;;1.20;;
40609;SDS011;26316;55.976;37.140;2023-03-09T09:00:27;2.42;;;0.95;;
40609;SDS011;26316;55.976;37.140;2023-03-09T09:02:53;2.03;;;1.25;;
40609;SDS011;26316;55.976;37.140;2023-03-09T09:05:19;1.52;;;0.90;;
40609;SDS011;26316;55.976;37.140;2023-03-09T09:07:44;0.75;;;0.73;;
40609;SDS011;26316;55.976;37.140;2023-03-09T09:10:10;1.42;;;0.88;;
40609;SDS011;26316;55.976;37.140;2023-03-09T09:12:36;4.68;;;1.20;;
40609;SDS011;26316;55.976;37.140;2023-03-09T09:15:06;1.52;;;0.90;;
40609;SDS011;26316;55.976;37.140;2023-03-09T09:17:35;1.58;;;0.88;;
40609;SDS011;26316;55.976;37.140;2023-03-09T09:20:02;2.35;;;1.20;;
40609;SDS011;26316;55.976;37.140;2023-03-09T09:22:29;2.67;;;1.17;;
40609;SDS011;26316;55.976;37.140;2023-03-09T09:24:55;2.00;;;1.30;;
40609;SDS011;26316;55.976;37.140;2023-03-09T09:27:20;1.52;;;1.20;;
40609;SDS011;26316;55.976;37.140;2023-03-09T09:29:46;2.17;;;0.98;;
40609;SDS011;26316;55.976;37.140;2023-03-09T09:32:11;4.20;;;1.30;;
40609;SDS011;26316;55.976;37.140;2023-03-09T09:34:37;3.53;;;1.00;;
40609;SDS011;26316;55.976;37.140;2023-03-09T09:37:04;3.17;;;1.38;;
40609;SDS011;26316;55.976;37.140;2023-03-09T09:39:31;2.08;;;1.10;;
40609;SDS011;26316;55.976;37.140;2023-03-09T09:41:58;4.97;;;1.10;;
40609;SDS011;26316;55.976;37.140;2023-03-09T09:44:33;3.45;;;1.40;;
40609;SDS011;26316;55.976;37.140;2023-03-09T09:47:04;1.98;;;1.35;;
40609;SDS011;26316;55.976;37.140;2023-03-09T09:49:31;1.48;;;0.88;;
40609;SDS011;26316;55.976;37.140;2023-03-09T09:57:40;1.00;;;0.90;;
40609;SDS011;26316;55.976;37.140;2023-03-09T10:00:31;3.35;;;0.93;;
40609;SDS011;26316;55.976;37.140;2023-03-09T10:05:56;1.70;;;1.02;;
40609;SDS011;26316;55.976;37.140;2023-03-09T10:08:35;1.40;;;0.88;;
40609;SDS011;26316;55.976;37.140;2023-03-09T10:11:20;3.90;;;1.15;;
40609;SDS011;26316;55.976;37.140;2023-03-09T10:14:24;2.28;;;1.10;;
40609;SDS011;26316;55.976;37.140;2023-03-09T10:19:35;1.42;;;0.75;;
40609;SDS011;26316;55.976;37.140;2023-03-09T10:22:14;4.28;;;1.30;;
40609;SDS011;26316;55.976;37.140;2023-03-09T10:24:44;1.10;;;0.80;;
40609;SDS011;26316;55.976;37.140;2023-03-09T10:35:41;0.93;;;0.90;;
40609;SDS011;26316;55.976;37.140;2023-03-09T10:38:14;2.50;;;0.85;;
40609;SDS011;26316;55.976;37.140;2023-03-09T10:40:51;1.70;;;1.35;;
40609;SDS011;26316;55.976;37.140;2023-03-09T10:48:42;2.00;;;0.85;;
40609;SDS011;26316;55.976;37.140;2023-03-09T10:53:49;4.43;;;1.10;;
40609;SDS011;26316;55.976;37.140;2023-03-09T10:56:25;2.10;;;0.95;;
40609;SDS011;26316;55.976;37.140;2023-03-09T11:01:34;1.83;;;0.80;;
40609;SDS011;26316;55.976;37.140;2023-03-09T11:09:35;1.67;;;0.60;;
40609;SDS011;26316;55.976;37.140;2023-03-09T11:15:22;0.80;;;0.55;;
40609;SDS011;26316;55.976;37.140;2023-03-09T11:17:56;1.15;;;0.70;;
40609;SDS011;26316;55.976;37.140;2023-03-09T11:20:35;1.60;;;0.68;;
40609;SDS011;26316;55.976;37.140;2023-03-09T11:31:41;1.48;;;0.90;;
40609;SDS011;26316;55.976;37.140;2023-03-09T11:34:20;1.15;;;1.00;;
40609;SDS011;26316;55.976;37.140;2023-03-09T11:36:52;1.90;;;0.95;;
40609;SDS011;26316;55.976;37.140;2023-03-09T11:39:33;1.98;;;0.95;;
40609;SDS011;26316;55.976;37.140;2023-03-09T11:42:02;1.08;;;0.77;;
40609;SDS011;26316;55.976;37.140;2023-03-09T11:44:32;1.83;;;1.02;;
40609;SDS011;26316;55.976;37.140;2023-03-09T11:47:03;2.42;;;1.05;;
40609;SDS011;26316;55.976;37.140;2023-03-09T11:49:31;1.80;;;0.90;;
40609;SDS011;26316;55.976;37.140;2023-03-09T11:51:57;0.73;;;0.70;;
40609;SDS011;26316;55.976;37.140;2023-03-09T11:56:56;1.65;;;0.95;;
40609;SDS011;26316;55.976;37.140;2023-03-09T11:59:44;1.08;;;0.77;;
40609;SDS011;26316;55.976;37.140;2023-03-09T12:05:15;2.25;;;0.85;;
40609;SDS011;26316;55.976;37.140;2023-03-09T12:10:31;1.02;;;0.77;;
40609;SDS011;26316;55.976;37.140;2023-03-09T12:15:37;2.58;;;1.05;;
40609;SDS011;26316;55.976;37.140;2023-03-09T12:18:18;2.53;;;0.88;;
40609;SDS011;26316;55.976;37.140;2023-03-09T12:20:49;1.63;;;0.93;;
40609;SDS011;26316;55.976;37.140;2023-03-09T12:29:47;1.52;;;0.85;;
40609;SDS011;26316;55.976;37.140;2023-03-09T12:31:44;3.63;;;1.02;;
40609;SDS011;26316;55.976;37.140;2023-03-09T12:36:37;1.08;;;0.68;;
40609;SDS011;26316;55.976;37.140;2023-03-09T12:49:45;1.23;;;0.95;;
40609;SDS011;26316;55.976;37.140;2023-03-09T12:52:20;1.80;;;1.00;;
40609;SDS011;26316;55.976;37.140;2023-03-09T12:55:08;1.88;;;0.90;;
40609;SDS011;26316;55.976;37.140;2023-03-09T12:57:38;1.10;;;0.93;;
40609;SDS011;26316;55.976;37.140;2023-03-09T13:03:13;2.40;;;1.20;;
40609;SDS011;26316;55.976;37.140;2023-03-09T13:05:42;2.53;;;1.00;;
40609;SDS011;26316;55.976;37.140;2023-03-09T13:10:57;3.35;;;1.17;;
40609;SDS011;26316;55.976;37.140;2023-03-09T13:13:46;2.63;;;1.48;;
40609;SDS011;26316;55.976;37.140;2023-03-09T13:21:44;5.40;;;1.30;;
40609;SDS011;26316;55.976;37.140;2023-03-09T13:27:17;2.50;;;1.23;;
40609;SDS011;26316;55.976;37.140;2023-03-09T13:32:41;4.22;;;1.33;;
40609;SDS011;26316;55.976;37.140;2023-03-09T13:35:22;2.42;;;1.30;;
40609;SDS011;26316;55.976;37.140;2023-03-09T13:37:50;2.15;;;1.30;;
40609;SDS011;26316;55.976;37.140;2023-03-09T13:42:57;2.38;;;1.60;;
40609;SDS011;26316;55.976;37.140;2023-03-09T13:45:26;2.97;;;1.23;;
40609;SDS011;26316;55.976;37.140;2023-03-09T13:47:56;4.10;;;1.60;;
40609;SDS011;26316;55.976;37.140;2023-03-09T13:50:24;3.63;;;1.40;;
40609;SDS011;26316;55.976;37.140;2023-03-09T13:52:58;2.05;;;1.33;;
40609;SDS011;26316;55.976;37.140;2023-03-09T13:55:24;1.80;;;1.50;;
40609;SDS011;26316;55.976;37.140;2023-03-09T13:57:51;2.78;;;1.50;;
40609;SDS011;26316;55.976;37.140;2023-03-09T14:02:44;3.00;;;1.27;;
40609;SDS011;26316;55.976;37.140;2023-03-09T14:07:49;3.58;;;1.63;;
40609;SDS011;26316;55.976;37.140;2023-03-09T14:10:25;1.70;;;1.50;;
40609;SDS011;26316;55.976;37.140;2023-03-09T14:12:54;2.85;;;1.40;;
40609;SDS011;26316;55.976;37.140;2023-03-09T14:15:20;2.97;;;1.50;;
40609;SDS011;26316;55.976;37.140;2023-03-09T14:17:47;2.17;;;1.42;;
40609;SDS011;26316;55.976;37.140;2023-03-09T14:20:17;2.00;;;1.65;;
40609;SDS011;26316;55.976;37.140;2023-03-09T14:22:46;3.05;;;1.60;;
40609;SDS011;26316;55.976;37.140;2023-03-09T14:25:29;2.88;;;1.67;;
40609;SDS011;26316;55.976;37.140;2023-03-09T14:27:56;3.70;;;1.58;;
40609;SDS011;26316;55.976;37.140;2023-03-09T14:33:23;5.43;;;1.80;;
40609;SDS011;26316;55.976;37.140;2023-03-09T14:36:03;3.95;;;2.05;;
40609;SDS011;26316;55.976;37.140;2023-03-09T14:38:30;4.05;;;2.35;;
40609;SDS011;26316;55.976;37.140;2023-03-09T14:41:00;4.03;;;2.08;;
40609;SDS011;26316;55.976;37.140;2023-03-09T14:43:32;6.00;;;2.45;;
40609;SDS011;26316;55.976;37.140;2023-03-09T14:46:09;3.80;;;2.22;;
40609;SDS011;26316;55.976;37.140;2023-03-09T14:48:43;4.63;;;2.38;;
40609;SDS011;26316;55.976;37.140;2023-03-09T14:51:12;6.18;;;2.10;;
40609;SDS011;26316;55.976;37.140;2023-03-09T14:53:53;5.32;;;2.45;;
40609;SDS011;26316;55.976;37.140;2023-03-09T14:56:23;2.75;;;2.10;;
40609;SDS011;26316;55.976;37.140;2023-03-09T14:58:49;5.57;;;2.72;;
40609;SDS011;26316;55.976;37.140;2023-03-09T15:01:15;6.70;;;3.00;;
40609;SDS011;26316;55.976;37.140;2023-03-09T15:03:42;4.38;;;2.38;;
40609;SDS011;26316;55.976;37.140;2023-03-09T15:06:08;3.22;;;2.03;;
40609;SDS011;26316;55.976;37.140;2023-03-09T15:08:33;2.85;;;2.45;;
40609;SDS011;26316;55.976;37.140;2023-03-09T15:10:59;3.90;;;2.42;;
40609;SDS011;26316;55.976;37.140;2023-03-09T15:13:25;3.03;;;2.50;;
40609;SDS011;26316;55.976;37.140;2023-03-09T15:15:50;4.10;;;2.53;;
40609;SDS011;26316;55.976;37.140;2023-03-09T15:18:16;6.03;;;2.58;;
40609;SDS011;26316;55.976;37.140;2023-03-09T15:20:42;4.53;;;2.40;;
40609;SDS011;26316;55.976;37.140;2023-03-09T15:23:07;3.17;;;2.03;;
40609;SDS011;26316;55.976;37.140;2023-03-09T15:25:33;5.90;;;2.13;;
40609;SDS011;26316;55.976;37.140;2023-03-09T15:27:59;3.63;;;2.47;;
40609;SDS011;26316;55.976;37.140;2023-03-09T15:30:24;5.55;;;3.90;;
40609;SDS011;26316;55.976;37.140;2023-03-09T15:32:51;5.93;;;3.50;;
40609;SDS011;26316;55.976;37.140;2023-03-09T15:35:18;7.72;;;3.92;;
40609;SDS011;26316;55.976;37.140;2023-03-09T15:37:45;5.30;;;3.78;;
40609;SDS011;26316;55.976;37.140;2023-03-09T15:40:12;5.80;;;3.97;;
40609;SDS011;26316;55.976;37.140;2023-03-09T15:42:39;7.43;;;4.20;;
40609;SDS011;26316;55.976;37.140;2023-03-09T15:45:07;6.22;;;3.35;;
40609;SDS011;26316;55.976;37.140;2023-03-09T15:47:34;5.72;;;3.58;;
40609;SDS011;26316;55.976;37.140;2023-03-09T15:49:59;5.10;;;2.95;;
40609;SDS011;26316;55.976;37.140;2023-03-09T15:52:25;5.43;;;3.45;;
40609;SDS011;26316;55.976;37.140;2023-03-09T15:54:51;8.10;;;3.90;;
40609;SDS011;26316;55.976;37.140;2023-03-09T15:57:16;6.55;;;3.83;;
40609;SDS011;26316;55.976;37.140;2023-03-09T15:59:42;4.53;;;3.83;;
40609;SDS011;26316;55.976;37.140;2023-03-09T16:02:09;10.77;;;5.82;;
40609;SDS011;26316;55.976;37.140;2023-03-09T16:04:35;6.55;;;4.60;;
40609;SDS011;26316;55.976;37.140;2023-03-09T16:07:01;8.38;;;4.13;;
40609;SDS011;26316;55.976;37.140;2023-03-09T16:09:27;6.88;;;4.60;;
40609;SDS011;26316;55.976;37.140;2023-03-09T16:11:53;8.70;;;5.93;;
40609;SDS011;26316;55.976;37.140;2023-03-09T16:14:19;9.68;;;5.57;;
40609;SDS011;26316;55.976;37.140;2023-03-09T16:16:45;8.10;;;5.43;;
40609;SDS011;26316;55.976;37.140;2023-03-09T16:19:11;7.40;;;5.63;;
40609;SDS011;26316;55.976;37.140;2023-03-09T16:21:36;7.88;;;5.22;;
40609;SDS011;26316;55.976;37.140;2023-03-09T16:24:02;10.00;;;5.10;;
40609;SDS011;26316;55.976;37.140;2023-03-09T16:26:28;8.45;;;4.93;;
40609;SDS011;26316;55.976;37.140;2023-03-09T16:28:54;6.05;;;4.25;;
40609;SDS011;26316;55.976;37.140;2023-03-09T16:31:23;7.85;;;4.75;;
40609;SDS011;26316;55.976;37.140;2023-03-09T16:36:18;8.90;;;4.27;;
40609;SDS011;26316;55.976;37.140;2023-03-09T16:38:45;7.60;;;3.92;;
40609;SDS011;26316;55.976;37.140;2023-03-09T16:41:12;7.72;;;3.95;;